createdAt,value
2022-09-20T00:01:33.281Z,94992.19
2022-09-20T00:04:05.502Z,94995.66
2022-09-20T00:06:34.488Z,94992.84
2022-09-20T00:09:03.024Z,94987.97
2022-09-20T00:11:33.219Z,94996.88
2022-09-20T00:14:02.932Z,94993.81
2022-09-20T00:16:34.342Z,94994.22
2022-09-20T00:19:06.628Z,94995.84
2022-09-20T00:21:37.947Z,95002.91
2022-09-20T00:24:06.038Z,94996.66
2022-09-20T00:26:33.701Z,94983.31
2022-09-20T00:29:01.639Z,94991.59
2022-09-20T00:31:28.862Z,94991.19
2022-09-20T00:34:16.921Z,94997.66
2022-09-20T00:36:44.952Z,94983.91
2022-09-20T00:39:14.704Z,94981.28
2022-09-20T00:41:42.091Z,94982.31
2022-09-20T00:44:56.850Z,94978.06
2022-09-20T00:47:33.825Z,94975.63
2022-09-20T00:50:24.160Z,94974.59
2022-09-20T00:53:05.156Z,94976.00
2022-09-20T00:55:35.736Z,94978.44
2022-09-20T00:58:03.180Z,94966.69
2022-09-20T01:00:30.351Z,94978.25
2022-09-20T01:03:06.707Z,94977.81
2022-09-20T01:05:34.689Z,94984.63
2022-09-20T01:08:02.765Z,94978.16
2022-09-20T01:10:32.080Z,94981.34
2022-09-20T01:12:59.018Z,94978.91
2022-09-20T01:15:28.860Z,94980.28
2022-09-20T01:17:59.573Z,94978.66
2022-09-20T01:20:32.001Z,94971.78
2022-09-20T01:24:02.544Z,94969.56
2022-09-20T01:26:57.592Z,94973.75
2022-09-20T01:30:03.116Z,94977.13
2022-09-20T01:32:44.807Z,94966.84
2022-09-20T01:35:13.325Z,94970.69
2022-09-20T01:38:14.350Z,94974.53
2022-09-20T01:41:05.969Z,94971.09
2022-09-20T01:43:51.067Z,94967.66
2022-09-20T01:46:35.247Z,94963.41
2022-09-20T01:49:21.319Z,94971.09
2022-09-20T01:52:03.658Z,94965.41
2022-09-20T01:55:06.445Z,94978.69
2022-09-20T01:58:00.827Z,94973.28
2022-09-20T02:00:39.197Z,94969.84
2022-09-20T02:03:16.757Z,94974.47
2022-09-20T02:06:23.528Z,94980.28
2022-09-20T02:09:21.609Z,94974.59
2022-09-20T02:12:22.105Z,94976.31
2022-09-20T02:15:55.285Z,94968.47
2022-09-20T02:18:44.194Z,94974.69
2022-09-20T02:21:28.905Z,94981.94
2022-09-20T02:24:14.657Z,94986.38
2022-09-20T02:27:03.071Z,94979.50
2022-09-20T02:30:00.835Z,94977.72
2022-09-20T02:32:55.170Z,94982.97
2022-09-20T02:35:44.066Z,94989.00
2022-09-20T02:38:32.288Z,94986.38
2022-09-20T02:41:40.932Z,94993.00
2022-09-20T02:44:30.190Z,94991.97
2022-09-20T02:47:36.566Z,94991.38
2022-09-20T02:50:38.791Z,95000.69
2022-09-20T02:53:33.064Z,94998.25
2022-09-20T02:56:29.989Z,94997.63
2022-09-20T02:59:08.819Z,94999.03
2022-09-20T03:02:18.606Z,94993.00
2022-09-20T03:05:26.420Z,94994.00
2022-09-20T03:08:35.708Z,94990.53
2022-09-20T03:11:48.554Z,94992.56
2022-09-20T03:14:23.109Z,94996.44
2022-09-20T03:17:23.912Z,95004.47
2022-09-20T03:20:15.824Z,94995.19
2022-09-20T03:23:36.553Z,94997.53
2022-09-20T03:26:32.104Z,95000.00
2022-09-20T03:29:17.682Z,95001.63
2022-09-20T03:32:19.572Z,95006.03
2022-09-20T03:35:43.119Z,95004.41
2022-09-20T03:38:50.538Z,95006.16
2022-09-20T03:41:50.151Z,95006.53
2022-09-20T03:44:59.223Z,95001.47
2022-09-20T03:48:06.539Z,95002.03
2022-09-20T03:50:47.829Z,95000.84
2022-09-20T03:53:29.771Z,95006.72
2022-09-20T03:56:11.311Z,95007.72
2022-09-20T03:58:56.060Z,94997.03
2022-09-20T04:02:10.066Z,95003.91
2022-09-20T04:05:17.117Z,94999.03
2022-09-20T04:08:19.329Z,95003.72
2022-09-20T04:11:15.779Z,95006.16
2022-09-20T04:14:14.970Z,95007.78
2022-09-20T04:17:03.328Z,94999.47
2022-09-20T04:19:49.098Z,95003.91
2022-09-20T04:22:18.723Z,95011.66
2022-09-20T04:25:15.737Z,95013.25
2022-09-20T04:27:59.398Z,95003.53
2022-09-20T04:30:32.769Z,95012.47
2022-09-20T04:33:38.600Z,95011.22
2022-09-20T04:37:09.320Z,95019.34
2022-09-20T04:40:26.556Z,95018.34
2022-09-20T04:43:42.804Z,95021.94
2022-09-20T04:46:56.215Z,95026.19
2022-09-20T04:49:43.132Z,95026.81
2022-09-20T04:53:14.975Z,95024.56
2022-09-20T04:56:12.043Z,95037.47
2022-09-20T04:58:48.120Z,95030.06
2022-09-20T05:01:44.463Z,95040.53
2022-09-20T05:04:25.882Z,95035.09
2022-09-20T05:07:47.238Z,95034.94
2022-09-20T05:10:46.017Z,95047.03
2022-09-20T05:13:47.921Z,95042.63
2022-09-20T05:16:40.714Z,95030.84
2022-09-20T05:19:25.253Z,95039.78
2022-09-20T05:22:23.215Z,95041.22
2022-09-20T05:25:27.880Z,95046.47
2022-09-20T05:28:23.833Z,95036.00
2022-09-20T05:31:34.543Z,95046.66
2022-09-20T05:34:23.608Z,95047.56
2022-09-20T05:36:56.461Z,95049.00
2022-09-20T05:39:37.088Z,95054.06
2022-09-20T05:42:19.072Z,95055.34
2022-09-20T05:45:13.984Z,95049.19
2022-09-20T05:47:52.580Z,95056.97
2022-09-20T05:50:56.637Z,95060.56
2022-09-20T05:53:40.089Z,95073.84
2022-09-20T05:56:13.129Z,95074.50
2022-09-20T05:59:32.221Z,95073.69
2022-09-20T06:02:34.186Z,95070.22
2022-09-20T06:05:49.000Z,95084.78
2022-09-20T06:08:33.935Z,95077.53
2022-09-20T06:11:51.106Z,95076.91
2022-09-20T06:15:00.879Z,95080.97
2022-09-20T06:18:18.445Z,95066.88
2022-09-20T06:21:19.843Z,95084.91
2022-09-20T06:23:47.445Z,95079.09
2022-09-20T06:28:46.351Z,95078.34
2022-09-20T06:31:13.609Z,95089.34
2022-09-20T06:33:50.398Z,95077.47
2022-09-20T06:36:50.717Z,95085.78
2022-09-20T06:39:58.917Z,95098.16
2022-09-20T06:42:27.512Z,95074.53
2022-09-20T06:44:55.061Z,95086.94
2022-09-20T06:47:23.289Z,95082.31
2022-09-20T06:49:50.501Z,95083.13
2022-09-20T06:52:20.385Z,95089.03
2022-09-20T06:54:53.914Z,95081.81
2022-09-20T06:57:38.715Z,95089.28
2022-09-20T07:00:10.943Z,95099.22
2022-09-20T07:02:38.665Z,95082.47
2022-09-20T07:05:07.860Z,95092.75
2022-09-20T07:07:35.199Z,95093.00
2022-09-20T07:10:02.636Z,95089.00
2022-09-20T07:12:33.610Z,95093.69
2022-09-20T07:15:00.892Z,95102.22
2022-09-20T07:17:28.057Z,95098.81
2022-09-20T07:19:57.158Z,95091.94
2022-09-20T07:22:24.352Z,95102.72
2022-09-20T07:24:51.323Z,95110.41
2022-09-20T07:27:19.009Z,95101.38
2022-09-20T07:29:46.442Z,95106.06
2022-09-20T07:32:15.714Z,95107.94
2022-09-20T07:34:43.334Z,95103.31
2022-09-20T07:37:11.580Z,95101.47
2022-09-20T07:39:38.669Z,95108.97
2022-09-20T07:42:09.984Z,95111.59
2022-09-20T07:44:42.812Z,95115.03
2022-09-20T07:47:11.272Z,95113.03
2022-09-20T07:49:38.182Z,95115.94
2022-09-20T07:52:06.469Z,95116.38
2022-09-20T07:54:33.633Z,95116.84
2022-09-20T07:57:00.877Z,95120.88
2022-09-20T07:59:27.841Z,95120.31
2022-09-20T08:01:55.065Z,95119.09
2022-09-20T08:04:22.194Z,95117.09
2022-09-20T08:06:49.571Z,95127.00
2022-09-20T08:09:16.812Z,95124.38
2022-09-20T08:11:44.449Z,95124.56
2022-09-20T08:14:16.934Z,95129.84
2022-09-20T08:16:47.904Z,95133.47
2022-09-20T08:19:23.461Z,95125.19
2022-09-20T08:21:53.987Z,95126.00
2022-09-20T08:24:21.390Z,95128.03
2022-09-20T08:26:48.890Z,95118.72
2022-09-20T08:29:16.487Z,95132.28
2022-09-20T08:31:44.139Z,95123.38
2022-09-20T08:34:14.961Z,95131.06
2022-09-20T08:36:46.723Z,95130.06
2022-09-20T08:42:23.365Z,95121.97
2022-09-20T08:45:00.505Z,95125.19
2022-09-20T08:47:36.034Z,95115.88
2022-09-20T08:50:09.959Z,95123.97
2022-09-20T08:52:41.310Z,95120.53
2022-09-20T08:55:22.248Z,95121.34
2022-09-20T08:57:56.849Z,95126.63
2022-09-20T09:00:35.140Z,95137.78
2022-09-20T09:03:11.193Z,95119.53
2022-09-20T09:05:53.190Z,95132.91
2022-09-20T09:08:28.068Z,95131.28
2022-09-20T09:11:00.087Z,95133.91
2022-09-20T09:13:37.795Z,95127.00
2022-09-20T09:16:15.230Z,95133.50
2022-09-20T09:18:45.997Z,95132.50
2022-09-20T09:21:26.612Z,95127.41
2022-09-20T09:24:03.405Z,95128.25
2022-09-20T09:26:40.975Z,95120.75
2022-09-20T09:29:25.532Z,95118.13
2022-09-20T09:31:57.156Z,95123.38
2022-09-20T09:34:32.092Z,95115.69
2022-09-20T09:36:59.494Z,95118.94
2022-09-20T09:39:29.545Z,95113.81
2022-09-20T09:42:01.115Z,95109.50
2022-09-20T09:44:35.525Z,95112.28
2022-09-20T09:47:02.561Z,95112.22
2022-09-20T09:49:34.204Z,95113.97
2022-09-20T09:52:15.169Z,95112.94
2022-09-20T09:54:52.288Z,95110.69
2022-09-20T09:57:57.149Z,95115.31
2022-09-20T10:00:27.318Z,95114.28
2022-09-20T10:03:27.037Z,95112.84
2022-09-20T10:06:22.552Z,95112.53
2022-09-20T10:09:04.664Z,95111.59
2022-09-20T10:11:43.555Z,95107.69
2022-09-20T10:14:39.865Z,95120.84
2022-09-20T10:17:47.313Z,95114.00
2022-09-20T10:20:53.085Z,95133.19
2022-09-20T10:24:03.652Z,95123.59
2022-09-20T10:26:55.655Z,95125.78
2022-09-20T10:29:40.584Z,95121.44
2022-09-20T10:32:27.440Z,95133.88
2022-09-20T10:35:14.440Z,95138.38
2022-09-20T10:38:11.597Z,95136.38
2022-09-20T10:41:51.267Z,95137.56
2022-09-20T10:44:37.433Z,95136.13
2022-09-20T10:47:20.445Z,95134.53
2022-09-20T10:50:05.138Z,95140.59
2022-09-20T10:53:35.668Z,95142.00
2022-09-20T10:56:28.749Z,95137.78
2022-09-20T10:59:44.397Z,95147.47
2022-09-20T11:02:42.627Z,95141.63
2022-09-20T11:05:20.960Z,95138.16
2022-09-20T11:08:19.289Z,95140.31
2022-09-20T11:10:53.851Z,95135.72
2022-09-20T11:13:41.168Z,95137.22
2022-09-20T11:16:47.844Z,95137.09
2022-09-20T11:19:26.979Z,95130.44
2022-09-20T11:22:12.309Z,95134.53
2022-09-20T11:24:51.772Z,95142.88
2022-09-20T11:27:29.552Z,95144.97
2022-09-20T11:30:02.070Z,95155.09
2022-09-20T11:32:53.268Z,95135.94
2022-09-20T11:35:37.063Z,95140.09
2022-09-20T11:38:36.158Z,95138.81
2022-09-20T11:41:26.637Z,95137.09
2022-09-20T11:43:57.671Z,95134.03
2022-09-20T11:46:31.561Z,95128.13
2022-09-20T11:49:16.225Z,95117.78
2022-09-20T11:52:24.503Z,95129.47
2022-09-20T11:55:24.005Z,95127.34
2022-09-20T11:58:09.462Z,95124.81
2022-09-20T12:00:44.651Z,95130.75
2022-09-20T12:03:38.840Z,95124.84
2022-09-20T12:06:30.267Z,95127.44
2022-09-20T12:09:00.438Z,95131.00
2022-09-20T12:11:38.717Z,95125.13
2022-09-20T12:14:18.709Z,95130.84
2022-09-20T12:16:49.064Z,95129.66
2022-09-20T12:19:32.261Z,95123.75
2022-09-20T12:21:59.575Z,95129.56
2022-09-20T12:24:29.256Z,95116.81
2022-09-20T12:26:59.936Z,95119.16
2022-09-20T12:29:26.935Z,95118.03
2022-09-20T12:32:34.809Z,95107.31
2022-09-20T12:35:02.348Z,95110.56
2022-09-20T12:37:29.987Z,95104.66
2022-09-20T12:39:57.290Z,95112.50
2022-09-20T12:42:32.207Z,95108.50
2022-09-20T12:45:16.517Z,95108.88
2022-09-20T12:47:53.877Z,95106.97
2022-09-20T12:50:41.042Z,95098.75
2022-09-20T12:53:16.775Z,95107.19
2022-09-20T12:56:05.673Z,95108.91
2022-09-20T12:58:52.123Z,95101.97
2022-09-20T13:01:19.169Z,95112.50
2022-09-20T13:03:48.644Z,95115.09
2022-09-20T13:06:17.709Z,95114.09
2022-09-20T13:09:01.977Z,95106.63
2022-09-20T13:11:40.791Z,95115.16
2022-09-20T13:14:19.143Z,95116.81
2022-09-20T13:16:55.054Z,95109.97
2022-09-20T13:19:31.687Z,95112.84
2022-09-20T13:22:26.001Z,95113.59
2022-09-20T13:25:07.072Z,95108.88
2022-09-20T13:27:39.649Z,95108.53
2022-09-20T13:30:22.346Z,95102.00
2022-09-20T13:32:51.500Z,95103.31
2022-09-20T13:35:22.286Z,95097.59
2022-09-20T13:38:07.572Z,95100.72
2022-09-20T13:40:40.142Z,95101.69
2022-09-20T13:43:33.885Z,95113.75
2022-09-20T13:46:13.970Z,95118.53
2022-09-20T13:48:41.261Z,95120.06
2022-09-20T13:51:26.448Z,95106.72
2022-09-20T13:53:54.550Z,95124.38
2022-09-20T13:56:32.472Z,95123.84
2022-09-20T13:59:05.456Z,95117.66
2022-09-20T14:04:16.160Z,95125.09
2022-09-20T14:06:43.711Z,95140.53
2022-09-20T14:09:35.785Z,95130.56
2022-09-20T14:12:05.309Z,95133.13
2022-09-20T14:14:35.068Z,95124.47
2022-09-20T14:17:08.883Z,95116.91
2022-09-20T14:19:44.109Z,95124.78
2022-09-20T14:22:26.435Z,95113.09
2022-09-20T14:25:02.197Z,95126.16
2022-09-20T14:27:31.486Z,95120.09
2022-09-20T14:30:00.191Z,95124.03
2022-09-20T14:32:44.975Z,95118.31
2022-09-20T14:35:21.492Z,95121.53
2022-09-20T14:38:06.966Z,95121.63
2022-09-20T14:40:48.666Z,95126.94
2022-09-20T14:43:35.205Z,95123.03
2022-09-20T14:46:07.135Z,95122.69
2022-09-20T14:48:41.263Z,95119.78
2022-09-20T14:51:22.721Z,95114.28
2022-09-20T14:53:53.892Z,95113.06
2022-09-20T14:56:35.937Z,95119.38
2022-09-20T14:59:13.988Z,95110.22
2022-09-20T15:01:46.621Z,95119.78
2022-09-20T15:04:23.095Z,95119.00
2022-09-20T15:06:51.524Z,95119.53
2022-09-20T15:09:20.902Z,95123.00
2022-09-20T15:12:17.806Z,95117.13
2022-09-20T15:14:45.893Z,95127.31
2022-09-20T15:17:20.818Z,95123.53
2022-09-20T15:19:50.190Z,95134.53
2022-09-20T15:22:17.654Z,95130.22
2022-09-20T15:24:44.933Z,95132.06
2022-09-20T15:27:13.506Z,95145.88
2022-09-20T15:29:40.968Z,95145.25
2022-09-20T15:32:10.725Z,95139.94
2022-09-20T15:34:38.200Z,95148.06
2022-09-20T15:37:05.231Z,95160.75
2022-09-20T15:39:32.177Z,95164.44
2022-09-20T15:41:59.254Z,95169.47
2022-09-20T15:44:26.251Z,95163.19
2022-09-20T15:46:53.669Z,95176.47
2022-09-20T15:49:21.810Z,95172.72
2022-09-20T15:51:49.059Z,95175.06
2022-09-20T15:54:16.065Z,95186.00
2022-09-20T15:56:43.420Z,95181.56
2022-09-20T15:59:11.732Z,95174.53
2022-09-20T16:01:44.445Z,95182.72
2022-09-20T16:04:19.638Z,95182.34
2022-09-20T16:06:49.597Z,95187.94
2022-09-20T16:09:18.102Z,95186.88
2022-09-20T16:11:48.305Z,95191.94
2022-09-20T16:14:15.674Z,95177.47
2022-09-20T16:16:42.665Z,95193.75
2022-09-20T16:19:17.504Z,95195.84
2022-09-20T16:21:52.496Z,95207.19
2022-09-20T16:24:35.689Z,95210.84
2022-09-20T16:27:06.494Z,95223.22
2022-09-20T16:29:34.353Z,95204.84
2022-09-20T16:32:03.606Z,95218.47
2022-09-20T16:34:36.100Z,95225.44
2022-09-20T16:37:11.832Z,95227.50
2022-09-20T16:39:40.317Z,95239.50
2022-09-20T16:42:09.071Z,95244.00
2022-09-20T16:44:38.385Z,95249.88
2022-09-20T16:47:08.934Z,95250.91
2022-09-20T16:49:37.146Z,95251.28
2022-09-20T16:52:09.428Z,95253.31
2022-09-20T16:54:37.202Z,95256.50
2022-09-20T16:57:05.151Z,95253.03
2022-09-20T16:59:32.777Z,95252.56
2022-09-20T17:02:00.311Z,95255.94
2022-09-20T17:04:27.711Z,95257.53
2022-09-20T17:06:57.799Z,95259.31
2022-09-20T17:09:24.907Z,95251.31
2022-09-20T17:11:56.713Z,95253.09
2022-09-20T17:14:25.851Z,95249.56
2022-09-20T17:16:53.237Z,95252.53
2022-09-20T17:19:21.589Z,95271.16
2022-09-20T17:21:51.516Z,95274.53
2022-09-20T17:24:21.241Z,95279.09
2022-09-20T17:26:50.375Z,95283.06
2022-09-20T17:29:19.890Z,95289.84
2022-09-20T17:31:55.658Z,95297.03
2022-09-20T17:34:26.556Z,95296.72
2022-09-20T17:36:55.611Z,95299.66
2022-09-20T17:39:23.090Z,95301.59
2022-09-20T17:41:50.956Z,95307.75
2022-09-20T17:44:18.700Z,95311.31
2022-09-20T17:46:49.924Z,95312.41
2022-09-20T17:49:20.712Z,95316.59
2022-09-20T17:51:53.583Z,95322.59
2022-09-20T17:54:21.970Z,95312.81
2022-09-20T17:56:51.521Z,95326.03
2022-09-20T17:59:20.145Z,95334.44
2022-09-20T18:01:50.749Z,95327.66
2022-09-20T18:04:21.013Z,95331.84
2022-09-20T18:06:51.893Z,95343.31
2022-09-20T18:09:22.608Z,95338.41
2022-09-20T18:11:54.065Z,95339.78
2022-09-20T18:14:25.035Z,95340.16
2022-09-20T18:17:00.664Z,95345.94
2022-09-20T18:19:32.775Z,95331.44
2022-09-20T18:22:04.253Z,95332.41
2022-09-20T18:24:32.241Z,95339.81
2022-09-20T18:27:00.921Z,95353.94
2022-09-20T18:29:29.165Z,95351.84
2022-09-20T18:31:56.812Z,95354.81
2022-09-20T18:34:31.910Z,95359.41
2022-09-20T18:37:03.651Z,95358.50
2022-09-20T18:39:33.490Z,95359.03
2022-09-20T18:42:02.505Z,95376.56
2022-09-20T18:44:34.233Z,95372.22
2022-09-20T18:47:05.696Z,95376.81
2022-09-20T18:49:33.342Z,95379.94
2022-09-20T18:52:00.366Z,95387.53
2022-09-20T18:54:30.469Z,95394.75
2022-09-20T18:56:58.306Z,95388.22
2022-09-20T18:59:27.440Z,95390.38
2022-09-20T19:02:16.750Z,95394.16
2022-09-20T19:05:14.387Z,95394.03
2022-09-20T19:08:26.110Z,95395.56
2022-09-20T19:10:59.490Z,95395.09
2022-09-20T19:13:41.454Z,95395.41
2022-09-20T19:16:37.087Z,95404.78
2022-09-20T19:19:26.501Z,95405.78
2022-09-20T19:22:51.421Z,95409.72
2022-09-20T19:25:26.116Z,95415.13
2022-09-20T19:27:54.046Z,95412.03
2022-09-20T19:30:22.049Z,95417.28
2022-09-20T19:32:49.634Z,95421.84
2022-09-20T19:35:28.427Z,95426.78
2022-09-20T19:38:24.755Z,95426.00
2022-09-20T19:41:39.586Z,95428.28
2022-09-20T19:44:25.827Z,95426.69
2022-09-20T19:47:17.222Z,95425.38
2022-09-20T19:50:02.771Z,95423.72
2022-09-20T19:52:31.002Z,95423.09
2022-09-20T19:54:58.241Z,95433.41
2022-09-20T19:57:47.156Z,95439.78
2022-09-20T20:00:20.783Z,95441.94
2022-09-20T20:02:48.811Z,95444.38
2022-09-20T20:05:20.042Z,95437.19
2022-09-20T20:07:59.652Z,95451.56
2022-09-20T20:10:38.937Z,95448.47
2022-09-20T20:13:33.416Z,95453.88
2022-09-20T20:16:13.732Z,95454.22
2022-09-20T20:19:03.111Z,95465.00
2022-09-20T20:22:03.267Z,95466.00
2022-09-20T20:24:44.689Z,95471.56
2022-09-20T20:27:12.218Z,95467.63
2022-09-20T20:29:39.161Z,95465.38
2022-09-20T20:32:06.294Z,95469.63
2022-09-20T20:34:36.909Z,95475.84
2022-09-20T20:37:08.242Z,95478.63
2022-09-20T20:39:35.306Z,95469.47
2022-09-20T20:42:03.954Z,95481.38
2022-09-20T20:44:33.747Z,95476.69
2022-09-20T20:47:05.762Z,95469.31
2022-09-20T20:49:33.346Z,95474.38
2022-09-20T20:52:04.647Z,95484.34
2022-09-20T20:54:32.823Z,95482.91
2022-09-20T20:56:59.836Z,95480.28
2022-09-20T20:59:27.907Z,95489.44
2022-09-20T21:01:54.934Z,95498.75
2022-09-20T21:04:24.131Z,95492.06
2022-09-20T21:06:51.090Z,95489.94
2022-09-20T21:09:18.351Z,95489.94
2022-09-20T21:11:46.640Z,95491.56
2022-09-20T21:14:13.742Z,95492.88
2022-09-20T21:16:43.552Z,95501.19
2022-09-20T21:19:15.651Z,95498.94
2022-09-20T21:21:47.198Z,95504.31
2022-09-20T21:24:17.457Z,95499.41
2022-09-20T21:26:46.709Z,95510.38
2022-09-20T21:29:15.879Z,95501.84
2022-09-20T21:31:46.709Z,95502.53
2022-09-20T21:34:15.712Z,95504.81
2022-09-20T21:36:44.765Z,95504.97
2022-09-20T21:39:12.741Z,95510.38
2022-09-20T21:41:40.992Z,95512.16
2022-09-20T21:44:12.158Z,95511.66
2022-09-20T21:46:42.008Z,95503.47
2022-09-20T21:49:12.239Z,95516.88
2022-09-20T21:51:42.610Z,95511.47
2022-09-20T21:54:10.059Z,95518.34
2022-09-20T21:56:38.906Z,95508.19
2022-09-20T21:59:07.664Z,95510.00
2022-09-20T22:01:38.374Z,95518.00
2022-09-20T22:04:11.557Z,95514.91
2022-09-20T22:06:43.782Z,95520.94
2022-09-20T22:09:13.678Z,95522.91
2022-09-20T22:11:47.155Z,95521.13
2022-09-20T22:14:17.492Z,95519.66
2022-09-20T22:16:46.669Z,95517.19
2022-09-20T22:19:17.072Z,95515.22
2022-09-20T22:21:47.863Z,95503.97
2022-09-20T22:24:16.539Z,95515.22
2022-09-20T22:26:46.014Z,95512.63
2022-09-20T22:29:13.253Z,95505.09
2022-09-20T22:31:46.516Z,95509.50
2022-09-20T22:34:19.854Z,95504.94
2022-09-20T22:36:47.100Z,95513.25
2022-09-20T22:39:15.615Z,95509.00
2022-09-20T22:41:43.432Z,95505.75
2022-09-20T22:44:11.179Z,95503.94
2022-09-20T22:46:38.943Z,95511.63
2022-09-20T22:49:08.210Z,95504.25
2022-09-20T22:51:36.393Z,95506.88
2022-09-20T22:54:09.684Z,95508.69
2022-09-20T22:56:37.784Z,95503.28
2022-09-20T22:59:15.566Z,95500.00
2022-09-20T23:01:46.098Z,95495.94
2022-09-20T23:04:16.822Z,95502.94
2022-09-20T23:06:57.517Z,95509.63
2022-09-20T23:09:30.257Z,95519.09
2022-09-20T23:11:57.397Z,95503.91
2022-09-20T23:14:24.346Z,95509.50
2022-09-20T23:16:51.547Z,95509.78
2022-09-20T23:19:18.856Z,95517.63
2022-09-20T23:21:46.276Z,95509.00
2022-09-20T23:24:16.112Z,95520.25
2022-09-20T23:26:45.018Z,95522.84
2022-09-20T23:29:16.716Z,95526.13
2022-09-20T23:31:46.741Z,95524.50
2022-09-20T23:34:15.780Z,95517.47
2022-09-20T23:36:43.407Z,95525.66
2022-09-20T23:39:11.859Z,95523.84
2022-09-20T23:41:39.892Z,95533.00
2022-09-20T23:44:10.134Z,95532.69
2022-09-20T23:46:38.353Z,95527.63
2022-09-20T23:49:06.604Z,95540.72
2022-09-20T23:51:35.310Z,95537.59
2022-09-20T23:54:02.690Z,95536.78
2022-09-20T23:56:30.045Z,95536.13
2022-09-20T23:58:57.311Z,95543.81
